createdAt,value
2018-10-04T00:01:15.303Z,99.90
2018-10-04T00:03:42.836Z,99.90
2018-10-04T00:06:10.290Z,99.90
2018-10-04T00:08:37.782Z,99.90
2018-10-04T00:11:05.249Z,99.90
2018-10-04T00:13:32.841Z,99.90
2018-10-04T00:16:00.277Z,99.90
2018-10-04T00:18:27.739Z,99.90
2018-10-04T00:20:55.194Z,99.90
2018-10-04T00:23:22.724Z,99.90
2018-10-04T00:25:50.213Z,99.90
2018-10-04T00:28:17.685Z,99.90
2018-10-04T00:30:45.323Z,99.90
2018-10-04T00:33:13.043Z,99.90
2018-10-04T00:35:40.523Z,99.90
2018-10-04T00:38:08.000Z,99.90
2018-10-04T00:40:35.591Z,99.90
2018-10-04T00:43:03.105Z,99.90
2018-10-04T00:45:30.567Z,99.90
2018-10-04T00:47:58.234Z,99.90
2018-10-04T00:50:25.706Z,99.90
2018-10-04T00:52:53.196Z,99.90
2018-10-04T00:55:20.688Z,99.90
2018-10-04T00:57:48.145Z,99.90
2018-10-04T01:00:15.609Z,99.90
2018-10-04T01:02:43.170Z,99.90
2018-10-04T01:05:10.789Z,99.90
2018-10-04T01:07:39.349Z,99.90
2018-10-04T01:10:07.823Z,99.90
2018-10-04T01:12:35.340Z,99.90
2018-10-04T01:15:02.849Z,99.90
2018-10-04T01:17:30.400Z,99.90
2018-10-04T01:19:57.952Z,99.90
2018-10-04T01:22:25.450Z,99.90
2018-10-04T01:24:53.085Z,99.90
2018-10-04T01:27:20.595Z,99.90
2018-10-04T01:29:48.087Z,99.90
2018-10-04T01:32:15.596Z,99.90
2018-10-04T01:34:43.137Z,99.90
2018-10-04T01:37:10.785Z,99.90
2018-10-04T01:39:38.289Z,99.90
2018-10-04T01:42:06.247Z,99.90
2018-10-04T01:44:33.747Z,99.90
2018-10-04T01:47:01.236Z,99.90
2018-10-04T01:49:29.114Z,99.90
2018-10-04T01:51:56.590Z,99.90
2018-10-04T01:54:24.154Z,99.90
2018-10-04T01:56:51.668Z,99.90
2018-10-04T01:59:19.284Z,99.90
2018-10-04T02:01:46.772Z,99.90
2018-10-04T02:04:14.298Z,99.90
2018-10-04T02:06:41.759Z,99.90
2018-10-04T02:09:09.270Z,99.90
2018-10-04T02:11:36.917Z,99.90
2018-10-04T02:14:04.449Z,99.90
2018-10-04T02:16:31.946Z,99.90
2018-10-04T02:18:59.448Z,99.90
2018-10-04T02:21:27.300Z,99.90
2018-10-04T02:23:54.819Z,99.90
2018-10-04T02:26:22.317Z,99.90
2018-10-04T02:28:49.913Z,99.90
2018-10-04T02:31:17.431Z,99.90
2018-10-04T02:33:45.052Z,99.90
2018-10-04T02:36:12.565Z,99.90
2018-10-04T02:38:40.401Z,99.90
2018-10-04T02:41:07.879Z,99.90
2018-10-04T02:43:35.405Z,99.90
2018-10-04T02:46:02.995Z,99.90
2018-10-04T02:48:31.008Z,99.90
2018-10-04T02:50:58.610Z,99.90
2018-10-04T02:53:26.090Z,99.90
2018-10-04T02:55:59.120Z,99.90
2018-10-04T02:58:26.617Z,99.90
2018-10-04T03:00:54.130Z,99.90
2018-10-04T03:03:21.622Z,99.90
2018-10-04T03:05:49.146Z,99.90
2018-10-04T03:08:16.639Z,99.90
2018-10-04T03:10:44.141Z,99.90
2018-10-04T03:13:11.856Z,99.90
2018-10-04T03:15:39.323Z,99.90
2018-10-04T03:18:06.856Z,99.90
2018-10-04T03:20:34.577Z,99.90
2018-10-04T03:23:02.078Z,99.90
2018-10-04T03:25:29.562Z,99.90
2018-10-04T03:27:57.121Z,99.90
2018-10-04T03:30:24.669Z,99.90
2018-10-04T03:32:52.170Z,99.90
2018-10-04T03:35:19.722Z,99.90
2018-10-04T03:37:47.185Z,99.90
2018-10-04T03:40:14.762Z,99.90
2018-10-04T03:42:42.326Z,99.90
2018-10-04T03:45:09.819Z,99.90
2018-10-04T03:47:37.475Z,99.90
2018-10-04T03:50:04.999Z,99.90
2018-10-04T03:52:32.474Z,99.90
2018-10-04T03:54:59.987Z,99.90
2018-10-04T03:57:27.490Z,99.90
2018-10-04T03:59:54.968Z,99.90
2018-10-04T04:02:22.506Z,99.90
2018-10-04T04:04:50.023Z,99.90
2018-10-04T04:07:17.580Z,99.90
2018-10-04T04:09:45.103Z,99.90
2018-10-04T04:12:12.777Z,99.90
2018-10-04T04:14:40.260Z,99.90
2018-10-04T04:17:07.740Z,99.90
2018-10-04T04:19:35.239Z,99.90
2018-10-04T04:22:03.618Z,99.90
2018-10-04T04:24:31.091Z,99.90
2018-10-04T04:26:58.639Z,99.90
2018-10-04T04:29:26.400Z,99.90
2018-10-04T04:31:53.947Z,99.90
2018-10-04T04:34:21.419Z,99.90
2018-10-04T04:36:49.033Z,99.90
2018-10-04T04:39:16.494Z,99.90
2018-10-04T04:41:43.992Z,99.90
2018-10-04T04:44:11.470Z,99.90
2018-10-04T04:46:39.033Z,99.90
2018-10-04T04:49:06.447Z,99.90
2018-10-04T04:51:34.001Z,99.90
2018-10-04T04:54:01.470Z,99.90
2018-10-04T04:56:28.962Z,99.90
2018-10-04T04:58:56.446Z,99.90
2018-10-04T05:01:23.946Z,99.90
2018-10-04T05:03:51.414Z,99.90
2018-10-04T05:06:18.935Z,99.90
2018-10-04T05:08:46.605Z,99.90
2018-10-04T05:11:14.230Z,99.90
2018-10-04T05:13:41.719Z,99.90
2018-10-04T05:16:09.390Z,99.90
2018-10-04T05:18:36.854Z,99.90
2018-10-04T05:21:04.371Z,99.90
2018-10-04T05:23:31.907Z,99.90
2018-10-04T05:25:59.371Z,99.90
2018-10-04T05:28:26.993Z,99.90
2018-10-04T05:30:54.471Z,99.90
2018-10-04T05:33:22.211Z,99.90
2018-10-04T05:35:49.695Z,99.90
2018-10-04T05:38:17.168Z,99.90
2018-10-04T05:40:44.706Z,99.90
2018-10-04T05:43:12.219Z,99.90
2018-10-04T05:45:39.840Z,99.90
2018-10-04T05:48:07.315Z,99.90
2018-10-04T05:50:34.898Z,99.90
2018-10-04T05:53:02.476Z,99.90
2018-10-04T05:55:29.878Z,99.90
2018-10-04T05:57:57.384Z,99.90
2018-10-04T06:00:29.291Z,99.90
2018-10-04T06:02:56.771Z,99.90
2018-10-04T06:05:24.387Z,99.90
2018-10-04T06:07:51.805Z,99.90
2018-10-04T06:10:19.286Z,99.90
2018-10-04T06:12:46.759Z,99.90
2018-10-04T06:15:14.506Z,99.90
2018-10-04T06:17:41.909Z,99.90
2018-10-04T06:20:09.408Z,99.90
2018-10-04T06:22:37.020Z,99.90
2018-10-04T06:25:04.520Z,99.90
2018-10-04T06:27:32.013Z,99.90
2018-10-04T06:29:59.580Z,99.90
2018-10-04T06:32:27.134Z,99.90
2018-10-04T06:34:54.632Z,99.90
2018-10-04T06:37:22.118Z,99.90
2018-10-04T06:39:49.690Z,99.90
2018-10-04T06:42:17.182Z,99.90
2018-10-04T06:44:44.656Z,99.90
2018-10-04T06:47:12.123Z,99.90
2018-10-04T06:49:39.691Z,99.90
2018-10-04T06:52:07.172Z,99.90
2018-10-04T06:54:34.717Z,99.90
2018-10-04T06:57:02.233Z,99.90
2018-10-04T06:59:29.762Z,99.90
2018-10-04T07:01:57.310Z,99.90
2018-10-04T07:04:24.875Z,99.90
2018-10-04T07:06:52.348Z,99.90
2018-10-04T07:09:19.824Z,99.90
2018-10-04T07:11:47.313Z,99.90
2018-10-04T07:14:14.921Z,99.90
2018-10-04T07:16:42.468Z,99.90
2018-10-04T07:19:09.946Z,99.90
2018-10-04T07:21:37.428Z,99.90
2018-10-04T07:24:05.035Z,99.90
2018-10-04T07:26:32.517Z,99.90
2018-10-04T07:29:00.042Z,99.90
2018-10-04T07:31:27.529Z,99.90
2018-10-04T07:33:55.115Z,99.90
2018-10-04T07:36:22.623Z,99.90
2018-10-04T07:38:53.538Z,99.90
2018-10-04T07:41:21.329Z,99.90
2018-10-04T07:43:49.027Z,99.90
2018-10-04T07:46:16.984Z,99.90
2018-10-04T07:48:44.621Z,99.90
2018-10-04T07:51:12.084Z,99.90
2018-10-04T07:53:39.559Z,99.90
2018-10-04T07:56:07.025Z,99.90
2018-10-04T07:58:34.562Z,99.90
2018-10-04T08:01:02.115Z,99.90
2018-10-04T08:03:29.694Z,99.90
2018-10-04T08:05:57.730Z,96.10
2018-10-04T08:08:26.410Z,94.10
2018-10-04T08:10:54.097Z,93.80
2018-10-04T08:13:21.603Z,90.70
2018-10-04T08:15:49.106Z,90.20
2018-10-04T08:18:16.571Z,89.10
2018-10-04T08:20:44.142Z,83.70
2018-10-04T08:23:11.701Z,84.50
2018-10-04T08:25:40.074Z,82.80
2018-10-04T08:28:07.538Z,81.20
2018-10-04T08:30:35.099Z,80.10
2018-10-04T08:33:02.696Z,81.90
2018-10-04T08:35:30.258Z,79.50
2018-10-04T08:37:57.763Z,77.30
2018-10-04T08:40:25.313Z,74.40
2018-10-04T08:42:52.901Z,74.80
2018-10-04T08:45:20.622Z,74.00
2018-10-04T08:47:48.184Z,72.90
2018-10-04T08:50:15.667Z,74.30
2018-10-04T08:52:48.699Z,73.60
2018-10-04T08:55:21.680Z,74.00
2018-10-04T08:57:49.182Z,74.70
2018-10-04T09:00:21.159Z,75.50
2018-10-04T09:02:48.625Z,75.60
2018-10-04T09:05:16.265Z,75.30
2018-10-04T09:07:43.799Z,76.50
2018-10-04T09:10:11.359Z,79.20
2018-10-04T09:12:38.854Z,76.40
2018-10-04T09:15:06.366Z,76.50
2018-10-04T09:17:33.964Z,81.50
2018-10-04T09:20:01.574Z,80.20
2018-10-04T09:22:29.158Z,79.10
2018-10-04T09:24:56.716Z,79.50
2018-10-04T09:27:24.319Z,77.90
2018-10-04T09:29:57.289Z,78.40
2018-10-04T09:32:24.775Z,78.50
2018-10-04T09:34:52.279Z,79.50
2018-10-04T09:37:19.761Z,79.90
2018-10-04T09:39:47.296Z,77.90
2018-10-04T09:42:14.871Z,78.20
2018-10-04T09:44:42.392Z,80.50
2018-10-04T09:47:15.186Z,83.30
2018-10-04T09:49:42.769Z,81.30
2018-10-04T09:52:10.391Z,82.90
2018-10-04T09:54:43.462Z,80.30
2018-10-04T09:57:16.356Z,76.10
2018-10-04T09:59:44.302Z,78.40
2018-10-04T10:02:15.645Z,79.20
2018-10-04T10:04:43.114Z,78.30
2018-10-04T10:07:10.670Z,77.80
2018-10-04T10:09:38.135Z,78.10
2018-10-04T10:12:05.787Z,80.80
2018-10-04T10:14:33.516Z,79.00
2018-10-04T10:17:01.090Z,77.90
2018-10-04T10:19:28.565Z,80.00
2018-10-04T10:21:56.098Z,76.50
2018-10-04T10:24:23.651Z,77.50
2018-10-04T10:26:51.210Z,76.60
2018-10-04T10:29:18.771Z,80.20
2018-10-04T10:31:46.363Z,78.20
2018-10-04T10:34:13.883Z,79.70
2018-10-04T10:36:41.714Z,74.10
2018-10-04T10:39:09.808Z,77.20
2018-10-04T10:41:37.503Z,77.50
2018-10-04T10:44:05.152Z,71.80
2018-10-04T10:46:32.827Z,72.20
2018-10-04T10:49:00.241Z,70.50
2018-10-04T10:51:27.832Z,71.10
2018-10-04T10:53:55.522Z,74.40
2018-10-04T10:56:23.312Z,75.40
2018-10-04T10:58:50.861Z,78.30
2018-10-04T11:01:18.580Z,75.30
2018-10-04T11:03:46.098Z,70.10
2018-10-04T11:06:13.635Z,73.80
2018-10-04T11:08:41.137Z,78.60
2018-10-04T11:11:09.833Z,74.70
2018-10-04T11:13:37.342Z,72.10
2018-10-04T11:16:04.935Z,75.40
2018-10-04T11:18:32.434Z,74.50
2018-10-04T11:20:59.931Z,71.60
2018-10-04T11:23:27.411Z,70.80
2018-10-04T11:25:54.915Z,73.50
2018-10-04T11:28:22.593Z,71.10
2018-10-04T11:30:50.359Z,71.20
2018-10-04T11:33:17.917Z,71.60
2018-10-04T11:35:45.404Z,71.30
2018-10-04T11:38:13.123Z,73.70
2018-10-04T11:40:40.551Z,78.00
2018-10-04T11:43:09.026Z,76.90
2018-10-04T11:45:38.794Z,77.50
2018-10-04T11:48:06.349Z,73.90
2018-10-04T11:50:34.009Z,74.60
2018-10-04T11:53:01.498Z,75.30
2018-10-04T11:55:29.069Z,75.80
2018-10-04T11:57:56.604Z,74.70
2018-10-04T12:00:25.638Z,74.20
2018-10-04T12:02:53.829Z,75.80
2018-10-04T12:05:21.408Z,77.00
2018-10-04T12:07:48.993Z,76.30
2018-10-04T12:10:16.478Z,79.00
2018-10-04T12:12:44.069Z,77.30
2018-10-04T12:15:11.527Z,77.50
2018-10-04T12:17:39.102Z,78.40
2018-10-04T12:20:06.735Z,77.20
2018-10-04T12:22:34.266Z,77.50
2018-10-04T12:25:01.900Z,80.00
2018-10-04T12:27:29.368Z,79.70
2018-10-04T12:29:56.935Z,80.20
2018-10-04T12:32:24.490Z,77.70
2018-10-04T12:34:52.152Z,79.30
2018-10-04T12:37:19.678Z,79.70
2018-10-04T12:39:47.447Z,79.50
2018-10-04T12:42:15.068Z,80.20
2018-10-04T12:44:42.748Z,82.10
2018-10-04T12:47:10.240Z,82.10
2018-10-04T12:49:37.871Z,80.60
2018-10-04T12:52:05.566Z,82.50
2018-10-04T12:54:33.067Z,81.30
2018-10-04T12:57:00.551Z,81.60
2018-10-04T12:59:28.152Z,80.00
2018-10-04T13:01:55.623Z,80.60
2018-10-04T13:04:23.108Z,82.20
2018-10-04T13:06:50.892Z,81.80
2018-10-04T13:09:18.246Z,82.00
2018-10-04T13:11:45.870Z,82.40
2018-10-04T13:14:13.432Z,80.80
2018-10-04T13:16:40.961Z,81.20
2018-10-04T13:19:08.463Z,80.10
2018-10-04T13:21:36.052Z,80.60
2018-10-04T13:24:03.514Z,79.70
2018-10-04T13:26:31.015Z,78.60
2018-10-04T13:28:58.561Z,79.30
2018-10-04T13:31:26.023Z,79.80
2018-10-04T13:33:53.550Z,79.80
2018-10-04T13:36:21.091Z,82.00
2018-10-04T13:38:48.728Z,81.90
2018-10-04T13:41:16.515Z,80.50
2018-10-04T13:43:43.992Z,80.20
2018-10-04T13:46:11.730Z,79.90
2018-10-04T13:48:39.252Z,78.80
2018-10-04T13:51:06.800Z,79.20
2018-10-04T13:53:34.322Z,80.50
2018-10-04T13:56:02.355Z,80.60
2018-10-04T13:58:29.894Z,80.40
2018-10-04T14:00:57.380Z,82.50
2018-10-04T14:03:24.929Z,81.40
2018-10-04T14:05:52.634Z,82.40
2018-10-04T14:08:20.569Z,83.00
2018-10-04T14:10:48.058Z,82.80
2018-10-04T14:13:15.743Z,81.20
2018-10-04T14:15:43.388Z,80.50
2018-10-04T14:18:10.879Z,81.00
2018-10-04T14:20:38.414Z,81.10
2018-10-04T14:23:06.041Z,82.00
2018-10-04T14:25:33.624Z,81.60
2018-10-04T14:28:01.160Z,81.60
2018-10-04T14:30:28.770Z,81.20
2018-10-04T14:32:56.682Z,82.00
2018-10-04T14:35:24.239Z,82.70
2018-10-04T14:37:51.880Z,84.60
2018-10-04T14:40:19.629Z,82.80
2018-10-04T14:42:47.213Z,83.30
2018-10-04T14:45:14.776Z,81.60
2018-10-04T14:47:42.255Z,81.40
2018-10-04T14:50:10.083Z,81.20
2018-10-04T14:52:37.640Z,81.90
2018-10-04T14:55:05.203Z,83.30
2018-10-04T14:57:32.820Z,81.60
2018-10-04T15:00:00.472Z,81.30
2018-10-04T15:02:28.067Z,82.10
2018-10-04T15:04:55.633Z,82.20
2018-10-04T15:07:23.337Z,81.20
2018-10-04T15:09:51.004Z,82.60
2018-10-04T15:12:18.797Z,82.00
2018-10-04T15:14:46.387Z,81.90
2018-10-04T15:17:14.062Z,82.20
2018-10-04T15:19:41.711Z,82.70
2018-10-04T15:22:09.383Z,85.30
2018-10-04T15:24:37.041Z,86.60
2018-10-04T15:27:04.529Z,85.20
2018-10-04T15:29:32.186Z,84.40
2018-10-04T15:31:59.731Z,83.60
2018-10-04T15:34:27.262Z,83.80
2018-10-04T15:36:54.786Z,84.00
2018-10-04T15:39:22.463Z,83.80
2018-10-04T15:41:50.049Z,84.40
2018-10-04T15:44:17.682Z,84.20
2018-10-04T15:46:45.201Z,84.70
2018-10-04T15:49:12.843Z,85.70
2018-10-04T15:51:40.493Z,86.00
2018-10-04T15:54:08.131Z,84.70
2018-10-04T15:56:35.691Z,84.80
2018-10-04T15:59:03.381Z,87.00
2018-10-04T16:01:31.020Z,87.70
2018-10-04T16:03:59.283Z,88.50
2018-10-04T16:06:26.868Z,87.70
2018-10-04T16:08:54.602Z,87.80
2018-10-04T16:11:22.108Z,90.00
2018-10-04T16:13:49.880Z,89.00
2018-10-04T16:16:17.388Z,89.10
2018-10-04T16:18:44.964Z,90.40
2018-10-04T16:21:12.632Z,90.40
2018-10-04T16:23:40.287Z,90.40
2018-10-04T16:26:07.943Z,90.70
2018-10-04T16:28:35.539Z,90.90
2018-10-04T16:31:03.155Z,91.90
2018-10-04T16:33:30.705Z,91.60
2018-10-04T16:35:58.320Z,91.80
2018-10-04T16:38:25.954Z,91.60
2018-10-04T16:40:53.512Z,91.30
2018-10-04T16:43:21.083Z,91.30
2018-10-04T16:45:48.873Z,91.80
2018-10-04T16:51:06.003Z,91.30
2018-10-04T16:53:33.547Z,91.10
2018-10-04T16:56:01.288Z,91.10
2018-10-04T16:58:29.126Z,91.20
2018-10-04T17:00:56.659Z,91.40
2018-10-04T17:03:24.196Z,91.70
2018-10-04T17:05:51.886Z,91.70
2018-10-04T17:08:21.344Z,91.90
2018-10-04T17:10:49.109Z,92.00
2018-10-04T17:13:17.137Z,92.70
2018-10-04T17:15:44.612Z,93.00
2018-10-04T17:18:12.256Z,93.40
2018-10-04T17:20:40.122Z,93.90
2018-10-04T17:23:07.800Z,94.00
2018-10-04T17:25:35.290Z,94.20
2018-10-04T17:28:02.811Z,94.40
2018-10-04T17:30:30.295Z,95.10
2018-10-04T17:32:57.893Z,95.20
2018-10-04T17:35:25.511Z,95.20
2018-10-04T17:37:53.018Z,95.50
2018-10-04T17:40:20.504Z,95.70
2018-10-04T17:42:47.992Z,96.10
2018-10-04T17:45:15.638Z,96.20
2018-10-04T17:47:43.300Z,96.30
2018-10-04T17:50:10.947Z,96.70
2018-10-04T17:52:38.515Z,96.80
2018-10-04T17:55:06.041Z,96.90
2018-10-04T17:57:38.010Z,96.90
2018-10-04T18:00:05.825Z,97.20
2018-10-04T18:02:33.400Z,97.40
2018-10-04T18:05:00.863Z,97.50
2018-10-04T18:07:28.551Z,98.00
2018-10-04T18:09:56.199Z,98.10
2018-10-04T18:12:23.724Z,98.40
2018-10-04T18:14:51.262Z,99.20
2018-10-04T18:17:18.792Z,99.80
2018-10-04T18:19:46.283Z,99.90
2018-10-04T18:22:13.821Z,99.90
2018-10-04T18:24:41.290Z,99.90
2018-10-04T18:27:08.758Z,99.90
2018-10-04T18:29:36.225Z,99.90
2018-10-04T18:32:03.750Z,99.90
2018-10-04T18:34:31.322Z,99.90
2018-10-04T18:36:58.853Z,99.90
2018-10-04T18:39:26.348Z,99.90
2018-10-04T18:41:53.820Z,99.90
2018-10-04T18:44:21.342Z,99.90
2018-10-04T18:46:48.904Z,99.90
2018-10-04T18:49:16.412Z,99.90
2018-10-04T18:51:43.942Z,99.90
2018-10-04T18:54:11.861Z,99.90
2018-10-04T18:56:39.359Z,99.90
2018-10-04T18:59:07.115Z,99.90
2018-10-04T19:01:34.591Z,99.90
2018-10-04T19:04:02.080Z,99.90
2018-10-04T19:06:29.567Z,99.90
2018-10-04T19:08:57.146Z,99.90
2018-10-04T19:11:24.743Z,99.90
2018-10-04T19:13:52.240Z,99.90
2018-10-04T19:16:19.895Z,99.90
2018-10-04T19:18:47.559Z,99.90
2018-10-04T19:21:15.132Z,99.90
2018-10-04T19:23:42.618Z,99.90
2018-10-04T19:26:10.251Z,99.90
2018-10-04T19:28:38.028Z,99.90
2018-10-04T19:31:05.634Z,99.90
2018-10-04T19:33:33.207Z,99.90
2018-10-04T19:36:00.711Z,99.90
2018-10-04T19:38:28.205Z,99.90
2018-10-04T19:40:55.682Z,99.90
2018-10-04T19:43:23.168Z,99.90
2018-10-04T19:45:50.844Z,99.90
2018-10-04T19:48:18.353Z,99.90
2018-10-04T19:50:45.922Z,99.90
2018-10-04T19:53:13.398Z,99.90
2018-10-04T19:55:40.971Z,99.90
2018-10-04T19:58:08.581Z,99.90
2018-10-04T20:00:36.167Z,99.90
2018-10-04T20:03:03.739Z,99.90
2018-10-04T20:05:31.225Z,99.90
2018-10-04T20:07:58.841Z,99.90
2018-10-04T20:10:27.446Z,99.90
2018-10-04T20:12:55.282Z,99.90
2018-10-04T20:15:27.739Z,99.90
2018-10-04T20:17:55.375Z,99.90
2018-10-04T20:20:23.011Z,99.90
2018-10-04T20:22:50.584Z,99.90
2018-10-04T20:25:18.250Z,99.90
2018-10-04T20:27:45.742Z,99.90
2018-10-04T20:30:13.709Z,99.90
2018-10-04T20:32:41.304Z,99.90
2018-10-04T20:35:08.787Z,99.90
2018-10-04T20:37:36.332Z,99.90
2018-10-04T20:40:03.883Z,99.90
2018-10-04T20:42:31.407Z,99.90
2018-10-04T20:44:58.899Z,99.90
2018-10-04T20:47:26.422Z,99.90
2018-10-04T20:49:53.922Z,99.90
2018-10-04T20:52:21.576Z,99.90
2018-10-04T20:54:49.156Z,99.90
2018-10-04T20:57:16.639Z,99.90
2018-10-04T20:59:44.119Z,99.90
2018-10-04T21:02:11.678Z,99.90
2018-10-04T21:04:39.377Z,99.90
2018-10-04T21:07:06.906Z,99.90
2018-10-04T21:09:34.473Z,99.90
2018-10-04T21:12:02.141Z,99.90
2018-10-04T21:14:29.610Z,99.90
2018-10-04T21:16:57.210Z,99.90
2018-10-04T21:19:24.813Z,99.90
2018-10-04T21:21:52.442Z,99.90
2018-10-04T21:24:19.957Z,99.90
2018-10-04T21:26:47.702Z,99.90
2018-10-04T21:29:15.183Z,99.90
2018-10-04T21:31:42.652Z,99.90
2018-10-04T21:34:10.219Z,99.90
2018-10-04T21:36:38.752Z,99.90
2018-10-04T21:39:06.235Z,99.90
2018-10-04T21:41:33.798Z,99.90
2018-10-04T21:44:01.520Z,99.90
2018-10-04T21:46:29.094Z,99.90
2018-10-04T21:48:56.643Z,99.90
2018-10-04T21:51:24.242Z,99.90
2018-10-04T21:53:51.770Z,99.90
2018-10-04T21:56:19.174Z,99.90
2018-10-04T21:58:46.700Z,99.90
2018-10-04T22:01:17.540Z,99.90
2018-10-04T22:03:45.396Z,99.90
2018-10-04T22:06:12.971Z,99.90
2018-10-04T22:08:40.595Z,99.90
2018-10-04T22:11:08.208Z,99.90
2018-10-04T22:13:35.755Z,99.90
2018-10-04T22:16:03.269Z,99.90
2018-10-04T22:18:30.734Z,99.90
2018-10-04T22:20:58.347Z,99.90
2018-10-04T22:23:25.792Z,99.90
2018-10-04T22:25:53.633Z,99.90
2018-10-04T22:28:21.112Z,99.90
2018-10-04T22:30:48.806Z,99.90
2018-10-04T22:33:16.306Z,99.90
2018-10-04T22:35:43.788Z,99.90
2018-10-04T22:38:11.418Z,99.90
2018-10-04T22:40:38.923Z,99.90
2018-10-04T22:43:06.483Z,99.90
2018-10-04T22:45:34.090Z,99.90
2018-10-04T22:48:01.752Z,99.90
2018-10-04T22:50:29.226Z,99.90
2018-10-04T22:52:56.731Z,99.90
2018-10-04T22:55:24.262Z,99.90
2018-10-04T22:57:51.811Z,99.90
2018-10-04T23:00:19.586Z,99.90
2018-10-04T23:02:47.065Z,99.90
2018-10-04T23:05:14.590Z,99.90
2018-10-04T23:07:42.085Z,99.90
2018-10-04T23:10:09.598Z,99.90
2018-10-04T23:12:37.084Z,99.90
2018-10-04T23:15:04.686Z,99.90
2018-10-04T23:17:32.163Z,99.90
2018-10-04T23:19:59.653Z,99.90
2018-10-04T23:22:27.211Z,99.90
2018-10-04T23:24:54.709Z,99.90
2018-10-04T23:27:22.285Z,99.90
2018-10-04T23:29:49.894Z,99.90
2018-10-04T23:32:17.359Z,99.90
2018-10-04T23:34:44.884Z,99.90
2018-10-04T23:37:12.377Z,99.90
2018-10-04T23:39:40.100Z,99.90
2018-10-04T23:42:07.570Z,99.90
2018-10-04T23:44:35.105Z,99.90
2018-10-04T23:47:02.599Z,99.90
2018-10-04T23:49:30.082Z,99.90
2018-10-04T23:51:57.687Z,99.90
2018-10-04T23:54:25.215Z,99.90
2018-10-04T23:56:52.807Z,99.90
2018-10-04T23:59:20.303Z,99.90
